Strafford, MO (65757)

03:12 PM CST on December 09, 2016 (GMT -0600)
Pearson Park | | Change Station

Elev 1368 ft 37.23 °N, 93.17 °W | Updated 32 seconds ago

Let skyet
Let skyet
32.6 ° F
Føles som 33 ° F
N
2.0
Vind Skiftende Vind SV
Gusts 3.0 mph

I dag
Høj -- | Lav -- ° F
--% Risiko for nedbør
I går
Høj -- | Lav -- ° F
Precip. -- tommer
Tryk 30.56 tommer
Sigtbarhed 10.0 mil
Skyer Klart
Vindeffekt 33 ° F
Dugpunkt 10 ° F
Luftfugtighed 38%
Regnmængde 0.00 tommer
Snedybde Ikke tilgængelig.
7:15 AM 4:54 PM
Tiltagende måne, 77% visible
METAR KSGF 092052Z 00000KT 10SM CLR 00/M13 A3051 RMK AO2 SLP348 T00001133 56027
Tryk 30.56 tommer
Sigtbarhed 10.0 mil
Skyer Klart
Vindeffekt 33 ° F
Dugpunkt 10 ° F
Luftfugtighed 38%
Regnmængde 0.00 tommer
Snedybde Ikke tilgængelig.
7:15 AM 4:54 PM
Tiltagende måne, 77% visible
METAR KSGF 092052Z 00000KT 10SM CLR 00/M13 A3051 RMK AO2 SLP348 T00001133 56027

10-Day Weather Forecast

Almanac

Astronomi

Dec. 09, 2016 Opgang Nedgang
Faktisktidspunkt
Civilttusmørke
Nautisktusmørke
Astronomisktusmørke
Måne
Synligtlys’ længde
Dagens længde
Tomorrow will be .
, % of the Moon is Illuminated

Ekstremer i dag

State Highs State Lows

Community

WunderPhotos

Upload Photos

1,956,517 Billeder uploaded!

WunderBlog® & News

Nearby

Luftkvalitet

  Luftkvalitet AQ-indeks Forureningskilder
Not available.

Snedybde

Station Depth Højde

Jordskælvsaktivitet

By Distance Mag. Time & Date
Minimum magnitude displayed is 2.5.

Kystnære vandtemperaturer

Sted Temperatur

Stations

Vejrstationer i nærheden

Stationenssted Temp. Vindeffekt Dugpunkt Luftfugtighed Vind Precip. Elev Opdateret Type
                   

Watches & Warnings

There are currently no watches in effect.